Time;durP1;ratioP1;P1;durP2;ratioP2;P2;SDS_P1;SDS_P2;PMS_P1;PMS_P2;Temp;Humidity;BMP_temperature;BMP_pressure;BME280_temperature;BME280_humidity;BME280_pressure;Samples;Min_cycle;Max_cycle;Signal;HPM_P1;HPM_P2
2022/12/26 00:01:39;;;;;;;222.02;47.50;;;7.60;99.90;;;;;;5066226;28;20032;-79
2022/12/26 00:04:05;;;;;;;240.75;47.70;;;;;;;;;;5038573;28;20102;-79
2022/12/26 00:06:32;;;;;;;226.75;43.13;;;7.90;99.90;;;;;;5065081;28;20459;-79
2022/12/26 00:08:59;;;;;;;252.65;46.10;;;7.60;99.90;;;;;;5063947;28;20036;-79
2022/12/26 00:11:25;;;;;;;250.00;46.35;;;7.80;99.90;;;;;;5046822;28;20486;-79
2022/12/26 00:13:59;;;;;;;229.98;45.55;;;7.90;99.90;;;;;;5074227;28;20123;-79
2022/12/26 00:16:26;;;;;;;236.50;46.08;;;8.10;99.90;;;;;;5085420;28;20080;-79
2022/12/26 00:18:52;;;;;;;257.70;48.13;;;7.90;99.90;;;;;;5042878;28;20029;-79
2022/12/26 00:21:18;;;;;;;257.15;47.13;;;7.80;99.90;;;;;;5057644;28;20040;-79
2022/12/26 00:23:45;;;;;;;282.20;49.25;;;8.20;99.90;;;;;;5065851;28;20067;-79
2022/12/26 00:26:16;;;;;;;272.23;51.97;;;8.10;99.90;;;;;;5053515;28;20032;-79
2022/12/26 00:28:43;;;;;;;252.18;47.30;;;;;;;;;;5051009;28;20072;-79
2022/12/26 00:31:12;;;;;;;200.88;42.13;;;8.20;99.90;;;;;;5072218;28;20520;-79
2022/12/26 00:33:38;;;;;;;236.82;49.40;;;7.80;99.90;;;;;;5073953;28;21191;-80
2022/12/26 00:36:07;;;;;;;207.43;42.92;;;8.00;99.90;;;;;;5054162;28;20040;-80
2022/12/26 00:38:37;;;;;;;225.45;46.75;;;7.70;99.90;;;;;;5056217;28;20045;-80
2022/12/26 00:41:03;;;;;;;197.50;43.15;;;7.70;99.90;;;;;;5065652;28;20036;-80
2022/12/26 00:43:30;;;;;;;202.00;42.72;;;7.70;99.90;;;;;;5061787;28;20057;-81
2022/12/26 00:45:56;;;;;;;163.77;40.80;;;9.00;99.90;;;;;;5061360;28;20058;-80
2022/12/26 00:48:21;;;;;;;189.15;40.50;;;8.30;99.90;;;;;;5068504;28;20490;-81
2022/12/26 00:50:47;;;;;;;193.95;41.35;;;7.50;99.90;;;;;;5070924;28;21498;-80
2022/12/26 00:53:13;;;;;;;218.00;44.00;;;7.60;99.90;;;;;;5057167;28;20036;-81
2022/12/26 00:55:39;;;;;;;218.98;43.10;;;8.00;99.90;;;;;;5073736;28;20036;-81
2022/12/26 00:58:04;;;;;;;220.45;42.28;;;8.10;99.90;;;;;;5070005;28;20036;-81
2022/12/26 01:00:31;;;;;;;180.65;36.55;;;7.70;99.90;;;;;;5062634;28;20043;-81
2022/12/26 01:02:58;;;;;;;210.57;41.67;;;;;;;;;;5071038;28;20036;-81
2022/12/26 01:05:23;;;;;;;204.85;42.78;;;7.70;99.90;;;;;;5064864;28;20050;-82
2022/12/26 01:07:49;;;;;;;183.27;38.35;;;7.40;99.90;;;;;;5086980;28;20024;-82
2022/12/26 01:10:15;;;;;;;175.65;37.92;;;7.80;99.90;;;;;;5076392;28;20162;-82
2022/12/26 01:12:40;;;;;;;170.30;40.30;;;7.90;99.90;;;;;;5061742;28;20094;-83
2022/12/26 01:15:07;;;;;;;181.43;41.40;;;8.00;99.90;;;;;;5095637;28;20062;-83
2022/12/26 01:17:33;;;;;;;185.75;38.92;;;7.60;99.90;;;;;;5088246;28;20037;-82
2022/12/26 01:19:59;;;;;;;172.88;39.13;;;;;;;;;;5084044;28;20051;-83
2022/12/26 01:22:25;;;;;;;145.25;36.45;;;;;;;;;;5058336;28;20079;-82
2022/12/26 01:24:55;;;;;;;149.30;35.33;;;8.40;99.90;;;;;;5079767;28;20039;-82
2022/12/26 01:27:22;;;;;;;167.75;36.38;;;8.10;99.90;;;;;;5090926;28;20185;-82
2022/12/26 01:29:48;;;;;;;152.05;36.92;;;8.70;99.90;;;;;;5068272;28;20119;-81
2022/12/26 01:32:14;;;;;;;144.55;34.53;;;8.00;99.90;;;;;;5065072;28;20098;-80
2022/12/26 01:34:40;;;;;;;131.20;34.17;;;7.90;99.90;;;;;;5056079;28;20063;-80
2022/12/26 01:37:05;;;;;;;149.20;36.38;;;8.00;99.90;;;;;;5098282;28;20430;-80
2022/12/26 01:39:31;;;;;;;137.10;35.38;;;7.60;99.90;;;;;;5064705;28;20494;-79
2022/12/26 01:41:57;;;;;;;132.13;35.08;;;7.60;99.90;;;;;;5058618;28;20032;-79
2022/12/26 01:44:50;;;;;;;133.82;36.35;;;8.80;99.90;;;;;;5058509;28;20115;-78
2022/12/26 01:47:17;;;;;;;118.78;33.10;;;8.30;99.90;;;;;;5056260;28;20051;-76
2022/12/26 01:49:45;;;;;;;98.45;33.03;;;8.20;99.90;;;;;;5061990;28;20040;-76
2022/12/26 01:52:26;;;;;;;102.30;29.92;;;8.90;99.90;;;;;;5072190;28;20086;-76
2022/12/26 01:54:54;;;;;;;89.80;26.70;;;8.50;99.90;;;;;;5060024;28;20123;-76
2022/12/26 01:57:27;;;;;;;93.85;26.08;;;8.50;99.90;;;;;;5057948;28;20093;-75
2022/12/26 01:59:56;;;;;;;82.63;25.48;;;7.70;99.90;;;;;;5082016;28;20043;-75
2022/12/26 02:02:23;;;;;;;75.88;24.55;;;8.20;99.90;;;;;;5055350;28;20039;-75
2022/12/26 02:07:39;;;;;;;75.25;25.10;;;7.80;99.90;;;;;;5062452;28;20044;-75
2022/12/26 02:10:10;;;;;;;65.95;24.88;;;8.30;99.90;;;;;;5075991;28;20040;-75
2022/12/26 02:12:36;;;;;;;69.60;25.95;;;8.00;99.90;;;;;;5072259;28;20114;-75
2022/12/26 02:15:04;;;;;;;62.03;23.38;;;8.80;99.90;;;;;;5055629;28;20132;-75
2022/12/26 02:17:30;;;;;;;72.90;25.48;;;8.10;99.90;;;;;;5049438;28;20086;-76
2022/12/26 02:20:02;;;;;;;61.55;25.17;;;8.70;99.90;;;;;;5072048;28;20131;-75
2022/12/26 02:23:00;;;;;;;64.97;25.45;;;7.80;99.90;;;;;;5071784;28;20564;-76
2022/12/26 02:25:41;;;;;;;80.15;28.08;;;8.30;99.90;;;;;;5021197;28;20466;-76
2022/12/26 02:28:25;;;;;;;76.05;28.08;;;8.80;99.90;;;;;;5063147;28;20032;-77
2022/12/26 02:31:06;;;;;;;72.30;26.90;;;7.90;99.90;;;;;;5061483;28;20063;-77
2022/12/26 02:33:59;;;;;;;66.05;24.73;;;8.10;99.90;;;;;;5060101;28;20444;-78
2022/12/26 02:37:06;;;;;;;89.72;31.70;;;8.80;99.90;;;;;;5063641;28;20097;-77
2022/12/26 02:39:57;;;;;;;93.93;32.22;;;8.40;99.90;;;;;;5065649;28;20055;-77
2022/12/26 02:42:34;;;;;;;89.50;34.22;;;8.20;99.90;;;;;;5074972;28;20032;-78
2022/12/26 02:48:06;;;;;;;98.28;36.90;;;8.00;99.90;;;;;;5063175;28;20075;-77
2022/12/26 03:14:20;;;;;;;102.93;37.70;;;8.60;99.90;;;;;;5068268;28;20053;-76
2022/12/26 03:19:56;;;;;;;112.43;40.78;;;8.50;99.90;;;;;;5083284;28;20613;-76
2022/12/26 03:22:35;;;;;;;109.60;42.17;;;8.40;99.90;;;;;;5062608;28;20562;-76
2022/12/26 03:27:52;;;;;;;110.20;41.00;;;8.60;99.90;;;;;;5061763;28;20041;-76
2022/12/26 03:33:02;;;;;;;103.97;39.00;;;9.00;99.90;;;;;;5066069;28;20039;-76
2022/12/26 03:35:32;;;;;;;101.55;38.53;;;8.20;99.90;;;;;;5042881;28;20600;-77
2022/12/26 03:38:08;;;;;;;85.82;36.80;;;8.90;99.90;;;;;;5055514;28;20051;-76
2022/12/26 04:44:06;;;;;;;108.30;42.17;;;7.90;99.90;;;;;;5071535;28;20470;-78
2022/12/26 04:46:34;;;;;;;102.53;37.58;;;;;;;;;;5061218;28;20085;-78
2022/12/26 04:51:48;;;;;;;109.35;39.88;;;8.20;99.90;;;;;;5087431;28;20557;-78
2022/12/26 04:54:14;;;;;;;102.32;41.38;;;7.70;99.90;;;;;;5059607;28;20241;-79
2022/12/26 04:56:40;;;;;;;91.00;38.17;;;7.90;99.90;;;;;;5067366;28;20173;-78
2022/12/26 04:59:05;;;;;;;95.80;41.92;;;7.90;99.90;;;;;;5084922;28;20483;-79
2022/12/26 05:09:52;;;;;;;89.22;39.63;;;8.00;99.90;;;;;;5081185;28;20512;-78
2022/12/26 05:12:18;;;;;;;84.30;37.33;;;8.20;99.90;;;;;;5071345;28;20413;-78
2022/12/26 05:14:44;;;;;;;89.97;38.40;;;7.80;99.90;;;;;;5055128;28;20046;-78
2022/12/26 05:31:04;;;;;;;97.68;39.28;;;8.20;99.90;;;;;;5063512;28;20040;-78
2022/12/26 05:36:16;;;;;;;87.30;36.22;;;8.80;99.90;;;;;;5063113;28;20110;-78
2022/12/26 05:38:42;;;;;;;87.15;38.10;;;7.50;99.90;;;;;;5081138;28;20094;-78
2022/12/26 05:41:07;;;;;;;89.15;37.60;;;7.40;99.90;;;;;;5066486;28;20028;-79
2022/12/26 05:43:33;;;;;;;87.00;36.30;;;7.60;99.90;;;;;;5053541;28;20218;-78
2022/12/26 05:45:59;;;;;;;85.72;37.75;;;8.20;99.90;;;;;;5062175;28;20040;-78
2022/12/26 05:48:24;;;;;;;76.00;36.80;;;8.00;99.90;;;;;;5069712;28;20058;-79
2022/12/26 05:50:50;;;;;;;84.75;36.83;;;8.00;99.90;;;;;;5063658;28;20040;-78
2022/12/26 05:53:15;;;;;;;71.85;34.80;;;8.00;99.90;;;;;;5054703;28;20504;-78
2022/12/26 05:55:41;;;;;;;62.78;32.45;;;8.20;99.90;;;;;;5062371;28;20095;-78
2022/12/26 05:58:07;;;;;;;81.90;34.50;;;8.00;99.90;;;;;;5058058;28;20181;-78
2022/12/26 06:00:33;;;;;;;68.43;32.20;;;8.00;99.90;;;;;;5070358;28;20069;-78
2022/12/26 06:02:59;;;;;;;69.78;33.90;;;7.70;99.90;;;;;;5057341;28;20028;-78
2022/12/26 06:05:25;;;;;;;69.80;34.60;;;8.20;99.90;;;;;;5074723;28;20064;-78
2022/12/26 06:07:51;;;;;;;65.13;33.03;;;8.60;99.90;;;;;;5084531;28;20037;-78
2022/12/26 06:10:16;;;;;;;68.32;31.95;;;7.70;99.90;;;;;;5071927;28;20463;-78
2022/12/26 06:12:42;;;;;;;71.05;30.70;;;8.10;99.90;;;;;;5062589;28;20068;-78
2022/12/26 06:15:08;;;;;;;64.75;32.17;;;8.50;99.90;;;;;;5046904;28;20044;-78
2022/12/26 06:17:34;;;;;;;54.72;27.55;;;8.10;99.90;;;;;;5062856;28;20105;-78
2022/12/26 06:20:00;;;;;;;54.35;28.50;;;7.90;99.90;;;;;;5068503;28;20082;-78
2022/12/26 06:22:28;;;;;;;57.65;26.40;;;8.00;99.90;;;;;;5080311;28;20039;-78
2022/12/26 06:24:53;;;;;;;53.50;24.60;;;7.80;99.90;;;;;;5070313;28;20414;-77
2022/12/26 06:27:19;;;;;;;49.10;23.33;;;8.90;99.90;;;;;;5067103;28;20049;-78
2022/12/26 06:29:45;;;;;;;43.63;21.52;;;9.40;99.90;;;;;;5062900;28;20035;-78
2022/12/26 06:32:11;;;;;;;36.97;20.45;;;8.70;99.90;;;;;;5065764;28;20570;-78
2022/12/26 06:34:36;;;;;;;42.95;19.95;;;8.20;99.90;;;;;;5062820;28;20062;-78
2022/12/26 06:37:02;;;;;;;41.63;21.98;;;8.40;99.90;;;;;;5063589;28;20040;-78
2022/12/26 06:39:28;;;;;;;40.03;21.25;;;8.80;99.90;;;;;;5043687;28;20178;-78
2022/12/26 06:41:54;;;;;;;36.95;21.05;;;8.80;99.90;;;;;;5046622;28;20029;-78
2022/12/26 06:44:19;;;;;;;37.22;21.88;;;8.50;99.90;;;;;;5072476;28;20068;-78
2022/12/26 06:46:45;;;;;;;39.95;21.50;;;7.80;99.90;;;;;;5057593;28;20496;-78
2022/12/26 06:49:11;;;;;;;42.15;21.17;;;7.70;99.90;;;;;;5052706;28;20039;-77
2022/12/26 06:51:36;;;;;;;39.08;20.52;;;8.50;99.90;;;;;;5072868;28;20032;-77
2022/12/26 06:54:02;;;;;;;40.22;20.33;;;8.20;99.90;;;;;;5073037;28;20043;-78
2022/12/26 06:56:30;;;;;;;37.55;21.05;;;7.50;99.90;;;;;;5047252;28;20120;-77
2022/12/26 06:58:58;;;;;;;41.35;21.52;;;8.00;99.90;;;;;;5060151;28;20443;-77
2022/12/26 07:01:25;;;;;;;35.75;21.00;;;7.90;99.90;;;;;;5053931;28;20039;-78
2022/12/26 07:03:52;;;;;;;39.13;22.23;;;8.00;99.90;;;;;;5059693;28;20375;-77
2022/12/26 07:06:22;;;;;;;37.45;20.80;;;8.70;99.90;;;;;;5048262;28;20047;-78
2022/12/26 07:08:49;;;;;;;36.45;22.88;;;7.90;99.90;;;;;;5086329;28;20075;-78
2022/12/26 07:11:16;;;;;;;32.67;20.27;;;8.10;99.90;;;;;;5081187;28;20037;-78
2022/12/26 07:13:42;;;;;;;38.47;21.27;;;7.80;99.90;;;;;;5078064;28;20451;-78
2022/12/26 07:16:09;;;;;;;34.28;20.35;;;8.10;99.90;;;;;;5084673;28;20516;-78
2022/12/26 07:18:35;;;;;;;41.20;21.60;;;7.30;99.90;;;;;;5064191;28;20045;-78
2022/12/26 07:21:08;;;;;;;38.63;20.63;;;7.60;99.90;;;;;;5061340;28;20032;-77
2022/12/26 07:23:34;;;;;;;42.55;21.98;;;7.70;99.90;;;;;;5075397;28;20032;-78
2022/12/26 07:25:59;;;;;;;37.65;20.67;;;7.90;99.90;;;;;;5090821;28;20032;-78
2022/12/26 07:28:26;;;;;;;36.67;21.77;;;;;;;;;;5043480;28;20464;-78
2022/12/26 07:30:52;;;;;;;39.08;19.85;;;7.90;99.90;;;;;;5070435;28;20040;-77
2022/12/26 07:33:17;;;;;;;38.63;20.10;;;7.70;99.90;;;;;;5060510;28;20509;-77
2022/12/26 07:35:43;;;;;;;35.20;19.35;;;8.20;99.90;;;;;;5051695;28;20062;-78
2022/12/26 07:38:10;;;;;;;34.75;19.08;;;7.60;99.90;;;;;;5049256;28;20040;-77
2022/12/26 07:40:36;;;;;;;33.78;18.00;;;8.10;99.90;;;;;;5059553;28;20032;-78
2022/12/26 07:43:02;;;;;;;32.42;17.65;;;8.00;99.90;;;;;;5072544;28;20029;-77
2022/12/26 07:45:27;;;;;;;32.75;16.35;;;7.50;99.90;;;;;;5059319;28;20096;-77
2022/12/26 07:47:54;;;;;;;33.63;17.23;;;8.00;99.90;;;;;;5076686;28;20028;-77
2022/12/26 07:50:21;;;;;;;28.58;15.90;;;;;;;;;;5064426;28;20040;-77
2022/12/26 07:52:47;;;;;;;32.63;17.67;;;7.60;99.90;;;;;;5041017;28;20199;-77
2022/12/26 07:55:12;;;;;;;28.08;15.52;;;8.10;99.90;;;;;;5064736;28;20420;-77
2022/12/26 07:57:38;;;;;;;30.05;15.68;;;7.40;99.90;;;;;;5063400;28;20052;-77
2022/12/26 08:00:05;;;;;;;35.20;15.80;;;7.50;99.90;;;;;;5063455;28;20040;-77
2022/12/26 08:02:30;;;;;;;32.30;15.10;;;7.90;99.90;;;;;;5063396;28;20071;-77
2022/12/26 08:04:56;;;;;;;27.83;14.32;;;8.20;99.90;;;;;;5075469;28;20470;-77
2022/12/26 08:07:22;;;;;;;26.40;14.73;;;7.60;99.90;;;;;;5069837;28;20489;-76
2022/12/26 08:09:47;;;;;;;27.45;14.60;;;8.10;99.90;;;;;;5083066;28;20553;-77
2022/12/26 08:12:13;;;;;;;25.13;14.82;;;7.90;99.90;;;;;;5064857;28;20126;-77
2022/12/26 08:14:40;;;;;;;21.88;13.25;;;7.50;99.90;;;;;;5063418;28;20100;-77
2022/12/26 08:17:06;;;;;;;27.75;13.30;;;8.00;99.90;;;;;;5068172;28;20036;-78
2022/12/26 08:19:32;;;;;;;26.77;13.32;;;8.20;99.90;;;;;;5076938;28;20036;-79
2022/12/26 08:21:58;;;;;;;25.35;13.02;;;8.50;99.90;;;;;;5072493;28;20107;-80
2022/12/26 08:24:23;;;;;;;28.90;12.57;;;8.50;99.90;;;;;;5072293;28;20066;-80
2022/12/26 08:26:49;;;;;;;23.42;11.20;;;7.80;99.90;;;;;;5098430;28;20283;-80
2022/12/26 08:29:15;;;;;;;25.30;10.60;;;8.10;99.90;;;;;;5048004;28;20081;-81
2022/12/26 08:31:40;;;;;;;24.17;10.95;;;7.70;99.90;;;;;;5074949;28;20053;-82
2022/12/26 08:34:06;;;;;;;26.05;12.00;;;8.40;99.90;;;;;;5091697;28;20047;-81
2022/12/26 08:36:32;;;;;;;24.33;11.15;;;8.10;99.90;;;;;;5049393;28;20309;-81
2022/12/26 08:38:57;;;;;;;23.30;12.45;;;8.10;99.90;;;;;;5087696;28;20032;-80
2022/12/26 08:41:23;;;;;;;28.23;13.75;;;8.10;99.90;;;;;;5091658;28;20036;-76
2022/12/26 08:43:50;;;;;;;21.00;11.40;;;8.30;99.90;;;;;;5063816;28;20473;-75
2022/12/26 08:46:17;;;;;;;20.48;11.73;;;8.40;99.90;;;;;;5057482;28;20090;-74
2022/12/26 08:48:44;;;;;;;21.60;10.20;;;8.80;99.90;;;;;;5079730;28;20084;-75
2022/12/26 08:51:15;;;;;;;22.13;11.48;;;8.10;99.90;;;;;;5059894;28;20078;-75
2022/12/26 08:53:42;;;;;;;28.60;13.20;;;8.60;99.90;;;;;;5060743;28;20517;-76
2022/12/26 08:56:12;;;;;;;27.33;12.52;;;7.90;99.90;;;;;;5077001;28;20044;-77
2022/12/26 08:58:38;;;;;;;20.77;11.43;;;7.80;99.90;;;;;;5043272;28;20047;-76
2022/12/26 09:01:18;;;;;;;16.48;9.27;;;7.70;99.90;;;;;;5061027;28;20036;-77
2022/12/26 09:03:45;;;;;;;16.67;8.57;;;8.30;99.90;;;;;;5061776;28;20042;-78
2022/12/26 09:06:12;;;;;;;23.42;8.75;;;8.00;99.90;;;;;;5045458;28;20081;-78
2022/12/26 09:08:39;;;;;;;24.40;8.57;;;8.00;99.90;;;;;;5082889;28;20055;-77
2022/12/26 09:11:07;;;;;;;17.17;4.93;;;7.90;99.90;;;;;;5068869;28;20316;-75
2022/12/26 09:13:34;;;;;;;17.27;4.18;;;;;;;;;;5052608;28;20127;-73
2022/12/26 09:16:21;;;;;;;16.15;4.28;;;8.40;99.90;;;;;;5055648;28;20036;-73
2022/12/26 09:18:48;;;;;;;12.93;4.68;;;7.10;99.90;;;;;;5079391;28;20093;-73
2022/12/26 09:21:15;;;;;;;12.60;3.13;;;7.70;99.90;;;;;;5064693;28;20185;-73
2022/12/26 09:23:41;;;;;;;24.90;6.15;;;7.90;99.90;;;;;;5080263;28;20123;-73
2022/12/26 09:26:12;;;;;;;23.95;5.22;;;;;;;;;;5063473;28;20386;-73
2022/12/26 09:28:39;;;;;;;13.73;3.85;;;7.10;99.90;;;;;;5056176;28;20430;-72
2022/12/26 09:31:11;;;;;;;15.65;3.15;;;7.10;99.90;;;;;;5061408;28;20416;-73
2022/12/26 09:33:37;;;;;;;17.65;5.07;;;6.40;99.90;;;;;;5065644;28;20504;-73
2022/12/26 09:36:08;;;;;;;14.60;3.00;;;7.00;99.90;;;;;;5061940;28;20039;-73
2022/12/26 09:38:35;;;;;;;13.32;4.05;;;;;;;;;;5090008;28;20051;-73
2022/12/26 09:41:10;;;;;;;16.48;3.28;;;6.40;99.90;;;;;;5061264;28;20393;-73
2022/12/26 09:44:00;;;;;;;13.85;2.95;;;6.40;99.90;;;;;;5089145;28;20047;-73
2022/12/26 09:47:13;;;;;;;13.40;3.72;;;7.30;99.90;;;;;;5070586;28;20047;-73
2022/12/26 09:50:00;;;;;;;12.98;3.45;;;6.50;99.90;;;;;;5035499;28;20040;-73
2022/12/26 09:52:38;;;;;;;9.93;2.80;;;6.50;99.90;;;;;;5082140;28;20127;-73
2022/12/26 09:55:32;;;;;;;18.45;3.20;;;7.20;99.90;;;;;;5063641;28;20378;-74
2022/12/26 09:58:03;;;;;;;15.30;3.85;;;7.50;99.90;;;;;;5063183;28;20080;-74
2022/12/26 10:00:37;;;;;;;16.45;3.70;;;7.50;99.90;;;;;;5081629;28;20108;-74
2022/12/26 10:03:03;;;;;;;14.43;3.47;;;6.90;99.90;;;;;;5081759;28;20469;-74
2022/12/26 10:05:51;;;;;;;14.63;3.08;;;7.40;99.90;;;;;;5063187;28;20477;-74
2022/12/26 10:08:32;;;;;;;11.85;2.85;;;7.30;99.90;;;;;;5057051;28;20089;-74
2022/12/26 10:11:03;;;;;;;17.20;2.80;;;7.00;99.90;;;;;;5071859;28;20069;-74
2022/12/26 10:14:02;;;;;;;13.60;3.10;;;6.90;99.90;;;;;;5086332;28;20044;-74
2022/12/26 10:17:01;;;;;;;10.20;2.28;;;7.50;99.90;;;;;;5064159;28;20458;-74
2022/12/26 10:19:33;;;;;;;16.45;2.70;;;6.90;99.90;;;;;;5076121;28;20111;-74
2022/12/26 10:22:13;;;;;;;10.60;2.72;;;7.10;99.90;;;;;;5082626;28;20539;-74
2022/12/26 10:24:42;;;;;;;8.48;2.50;;;6.40;99.90;;;;;;5078038;28;20106;-74
2022/12/26 10:27:16;;;;;;;17.05;2.42;;;6.80;99.90;;;;;;5067053;28;20062;-73
2022/12/26 10:29:51;;;;;;;14.27;2.78;;;6.30;99.90;;;;;;5078163;28;20035;-74
2022/12/26 10:32:36;;;;;;;6.15;1.40;;;;;;;;;;5087121;28;20032;-73
2022/12/26 10:35:23;;;;;;;10.27;2.38;;;6.30;99.90;;;;;;5071510;28;20043;-73
2022/12/26 10:37:50;;;;;;;14.93;2.15;;;6.10;99.90;;;;;;5069724;28;20044;-74
2022/12/26 10:40:42;;;;;;;11.07;2.50;;;6.10;99.90;;;;;;5081681;28;20032;-74
2022/12/26 10:43:30;;;;;;;9.10;1.85;;;6.20;99.90;;;;;;5066378;28;20382;-73
2022/12/26 10:46:21;;;;;;;11.50;2.05;;;6.70;99.90;;;;;;5075830;28;20129;-73
2022/12/26 10:48:47;;;;;;;9.07;1.70;;;6.50;99.90;;;;;;5061989;28;20083;-73
2022/12/26 10:51:14;;;;;;;9.27;2.50;;;6.80;99.90;;;;;;5058420;28;20122;-73
2022/12/26 10:53:46;;;;;;;10.43;1.70;;;;;;;;;;5066900;28;20409;-73
2022/12/26 10:56:12;;;;;;;7.13;1.52;;;6.30;99.90;;;;;;5078319;28;20047;-74
2022/12/26 10:58:39;;;;;;;12.32;2.13;;;6.90;99.90;;;;;;5046661;28;20040;-73
2022/12/26 11:01:27;;;;;;;8.52;1.90;;;6.70;99.90;;;;;;5069877;28;20483;-74
2022/12/26 11:03:59;;;;;;;11.75;2.08;;;6.30;99.90;;;;;;5059408;28;20120;-73
2022/12/26 11:06:40;;;;;;;9.60;2.00;;;6.70;99.90;;;;;;5057938;28;20040;-73
2022/12/26 11:09:06;;;;;;;7.95;1.88;;;6.20;99.90;;;;;;5091251;28;20040;-73
2022/12/26 11:11:47;;;;;;;6.72;1.88;;;6.80;99.90;;;;;;5065836;28;20452;-73
2022/12/26 11:14:30;;;;;;;10.82;1.90;;;7.10;99.90;;;;;;5064787;28;20316;-73
2022/12/26 11:16:57;;;;;;;10.88;2.35;;;;;;;;;;5044913;28;20074;-73
2022/12/26 11:19:45;;;;;;;13.52;2.63;;;7.10;99.90;;;;;;5063926;28;20501;-73
2022/12/26 11:22:14;;;;;;;9.30;2.08;;;6.60;99.90;;;;;;5064090;28;20041;-73
2022/12/26 11:24:40;;;;;;;10.30;1.80;;;6.90;99.90;;;;;;5061691;28;20040;-73
2022/12/26 11:27:17;;;;;;;13.15;3.53;;;6.60;99.90;;;;;;5067177;28;20445;-73
2022/12/26 11:29:43;;;;;;;19.88;3.65;;;6.70;99.90;;;;;;5060019;28;20043;-72
2022/12/26 11:32:18;;;;;;;11.18;2.03;;;6.90;99.90;;;;;;5086597;28;20041;-73
2022/12/26 11:34:46;;;;;;;13.30;3.88;;;6.40;99.90;;;;;;5053783;28;20127;-72
2022/12/26 11:37:28;;;;;;;16.00;3.05;;;6.60;73.70;;;;;;5080161;28;20189;-72
2022/12/26 11:39:54;;;;;;;12.15;3.10;;;6.50;95.30;;;;;;5071444;28;20490;-72
2022/12/26 11:42:22;;;;;;;11.32;2.75;;;7.10;68.00;;;;;;5059585;28;20115;-72
2022/12/26 11:44:51;;;;;;;11.15;3.33;;;8.10;68.30;;;;;;5067243;28;20205;-72
2022/12/26 11:47:27;;;;;;;8.73;2.92;;;9.20;1.00;;;;;;5049599;28;20048;-72
2022/12/26 11:49:52;;;;;;;14.43;2.67;;;9.60;1.00;;;;;;5083908;28;20501;-72
2022/12/26 11:52:43;;;;;;;11.85;2.50;;;9.80;1.00;;;;;;5074284;28;20055;-72
2022/12/26 11:55:24;;;;;;;10.60;2.33;;;;;;;;;;5067504;28;20048;-72
2022/12/26 11:58:05;;;;;;;7.40;1.52;;;8.30;1.00;;;;;;5085720;28;20488;-72
2022/12/26 12:00:38;;;;;;;10.40;2.10;;;8.20;1.00;;;;;;5074772;28;20064;-72
2022/12/26 12:03:20;;;;;;;10.85;2.30;;;8.20;1.00;;;;;;5076857;28;20028;-72
2022/12/26 12:06:17;;;;;;;13.40;2.78;;;7.80;17.20;;;;;;5057091;28;20115;-72
2022/12/26 12:09:14;;;;;;;12.45;2.40;;;7.40;1.00;;;;;;5082950;28;20051;-72
2022/12/26 12:11:59;;;;;;;10.82;2.45;;;7.60;1.00;;;;;;5087111;28;20036;-73
2022/12/26 12:14:48;;;;;;;8.73;2.63;;;7.70;1.00;;;;;;5092128;28;20040;-74
2022/12/26 12:17:27;;;;;;;14.75;2.70;;;8.40;1.00;;;;;;5080151;28;20397;-75
2022/12/26 12:19:59;;;;;;;15.32;2.83;;;8.30;1.00;;;;;;5082886;28;20028;-72
2022/12/26 12:22:56;;;;;;;11.25;2.70;;;9.30;1.00;;;;;;5083321;28;20099;-72
2022/12/26 12:25:51;;;;;;;13.93;2.72;;;9.50;1.00;;;;;;5061488;28;20115;-73
2022/12/26 12:28:32;;;;;;;18.00;3.15;;;11.10;1.00;;;;;;5061029;28;20066;-72
2022/12/26 12:31:18;;;;;;;10.82;2.60;;;11.70;1.00;;;;;;5061315;28;20405;-72
2022/12/26 12:34:31;;;;;;;14.55;3.70;;;12.20;1.00;;;;;;5078235;28;20111;-73
2022/12/26 12:37:18;;;;;;;10.88;2.10;;;12.60;99.90;;;;;;5001032;28;20038;-73
2022/12/26 12:39:55;;;;;;;9.40;2.08;;;12.50;99.90;;;;;;5066351;28;20085;-72
2022/12/26 12:42:38;;;;;;;9.07;3.33;;;13.30;99.90;;;;;;5083242;28;20106;-72
2022/12/26 12:45:31;;;;;;;11.20;2.08;;;12.70;99.90;;;;;;5058184;28;20032;-72
2022/12/26 12:48:22;;;;;;;9.23;2.05;;;13.40;99.90;;;;;;5061588;28;20047;-73
2022/12/26 12:51:06;;;;;;;11.05;2.28;;;12.90;99.90;;;;;;5069604;28;20276;-72
2022/12/26 12:54:08;;;;;;;7.03;2.33;;;13.00;1.00;;;;;;5078711;28;20036;-72
2022/12/26 12:56:34;;;;;;;15.32;2.85;;;;;;;;;;5075030;28;20049;-73
2022/12/26 12:59:34;;;;;;;8.20;2.05;;;10.60;1.00;;;;;;5060686;28;20036;-72
2022/12/26 13:02:09;;;;;;;15.05;3.38;;;9.90;1.00;;;;;;5060118;28;20073;-72
2022/12/26 13:04:43;;;;;;;;;;;9.60;1.00;;;;;;5055896;28;20541;-72
2022/12/26 13:07:18;;;;;;;11.73;2.60;;;8.40;1.00;;;;;;5089669;28;19920;-73
2022/12/26 13:10:00;;;;;;;19.63;2.88;;;8.60;1.00;;;;;;5071863;28;20047;-73
2022/12/26 13:12:36;;;;;;;12.15;3.17;;;8.40;1.00;;;;;;5059795;28;20065;-72
2022/12/26 13:15:23;;;;;;;14.77;2.83;;;8.20;1.00;;;;;;5059884;28;20037;-73
2022/12/26 13:17:55;;;;;;;13.20;3.17;;;7.70;1.00;;;;;;5061605;28;20047;-72
2022/12/26 13:20:44;;;;;;;14.73;2.08;;;7.90;1.00;;;;;;5064072;28;20040;-72
2022/12/26 13:26:25;;;;;;;12.95;3.03;;;8.30;1.00;;;;;;5054496;28;20052;-73
2022/12/26 13:29:19;;;;;;;16.77;3.13;;;8.20;1.00;;;;;;5053122;28;20396;-73
2022/12/26 13:31:45;;;;;;;12.95;2.63;;;9.60;1.00;;;;;;5064423;28;20378;-73
2022/12/26 13:34:16;;;;;;;14.18;3.85;;;10.10;99.90;;;;;;5046856;28;20546;-73
2022/12/26 13:36:51;;;;;;;10.77;2.53;;;10.20;99.90;;;;;;5053570;28;20045;-73
2022/12/26 13:39:29;;;;;;;10.07;2.42;;;10.30;99.90;;;;;;5068549;28;20048;-72
2022/12/26 13:44:48;;;;;;;11.13;2.47;;;;;;;;;;5074512;28;20036;-72
2022/12/26 13:47:31;;;;;;;10.52;2.58;;;9.60;99.90;;;;;;5057442;28;20040;-73
2022/12/26 13:49:56;;;;;;;9.15;1.80;;;9.30;99.90;;;;;;5054672;28;20482;-72
2022/12/26 13:52:31;;;;;;;13.27;3.08;;;8.60;99.90;;;;;;5064828;28;20038;-72
2022/12/26 13:55:06;;;;;;;7.07;2.08;;;8.50;1.00;;;;;;5067813;28;20554;-72
2022/12/26 13:57:41;;;;;;;11.35;2.03;;;7.90;1.00;;;;;;5069765;28;20517;-72
2022/12/26 14:00:16;;;;;;;9.68;2.45;;;8.00;1.00;;;;;;5053137;28;20036;-72
2022/12/26 14:03:03;;;;;;;12.68;2.75;;;7.40;1.00;;;;;;5091940;28;20043;-72
2022/12/26 14:05:43;;;;;;;10.20;2.80;;;7.70;1.00;;;;;;5089363;28;20074;-72
2022/12/26 14:08:15;;;;;;;12.07;2.60;;;7.80;1.00;;;;;;5084805;28;20040;-72
2022/12/26 14:10:59;;;;;;;13.65;2.33;;;8.20;1.00;;;;;;5065082;28;20044;-72
2022/12/26 14:13:44;;;;;;;10.90;2.17;;;8.30;1.00;;;;;;5083568;28;20043;-72
2022/12/26 14:16:30;;;;;;;14.80;2.88;;;;;;;;;;5076030;28;20505;-72
2022/12/26 14:19:25;;;;;;;13.10;2.50;;;7.50;1.00;;;;;;5067207;28;20067;-72
2022/12/26 14:22:01;;;;;;;10.18;2.25;;;7.00;1.00;;;;;;5058154;28;20056;-72
2022/12/26 14:24:45;;;;;;;10.48;2.08;;;6.70;1.00;;;;;;5081989;28;20075;-73
2022/12/26 14:27:39;;;;;;;13.65;2.30;;;7.40;1.00;;;;;;5065814;28;20036;-72
2022/12/26 14:30:34;;;;;;;11.88;2.28;;;7.60;1.00;;;;;;5085558;28;20074;-72
2022/12/26 14:33:20;;;;;;;8.32;1.70;;;7.90;1.00;;;;;;5083993;28;20044;-72
2022/12/26 14:36:15;;;;;;;11.95;2.75;;;7.70;1.00;;;;;;5067303;28;20043;-70
2022/12/26 14:38:59;;;;;;;;;;;7.40;1.00;;;;;;5087694;28;20354;-71
2022/12/26 14:44:19;;;;;;;;;;;6.70;1.00;;;;;;5074264;28;20040;-69
2022/12/26 14:46:47;;;;;;;10.98;2.75;;;6.80;1.00;;;;;;5090323;28;19916;-69
2022/12/26 14:49:22;;;;;;;8.30;3.53;;;7.20;1.00;;;;;;5065928;28;20104;-69
2022/12/26 14:51:48;;;;;;;16.02;3.25;;;6.60;1.00;;;;;;5082432;28;20066;-69
2022/12/26 14:54:21;;;;;;;11.45;3.10;;;7.10;1.00;;;;;;5068921;28;20055;-69
2022/12/26 14:56:49;;;;;;;11.55;2.70;;;7.20;1.00;;;;;;5091894;28;20032;-69
2022/12/26 14:59:26;;;;;;;13.55;2.60;;;6.40;1.00;;;;;;5081254;28;20037;-69
2022/12/26 15:02:21;;;;;;;9.68;2.08;;;6.80;1.00;;;;;;5063523;28;20032;-69
2022/12/26 15:05:19;;;;;;;14.52;3.05;;;6.40;1.00;;;;;;5066586;28;20048;-69
2022/12/26 15:07:45;;;;;;;9.70;3.08;;;;;;;;;;5084206;28;20084;-69
2022/12/26 15:10:32;;;;;;;10.52;2.70;;;6.40;1.00;;;;;;5065732;28;20076;-69
2022/12/26 15:13:24;;;;;;;9.70;2.20;;;6.30;1.00;;;;;;5080108;28;20292;-69
2022/12/26 15:16:22;;;;;;;15.75;3.70;;;5.90;1.00;;;;;;5076601;28;20033;-69
2022/12/26 15:19:05;;;;;;;13.70;3.15;;;6.00;1.00;;;;;;5060444;28;20044;-69
2022/12/26 15:21:54;;;;;;;10.38;2.83;;;;;;;;;;5078114;28;20044;-69
2022/12/26 15:24:42;;;;;;;9.88;2.50;;;6.30;1.00;;;;;;5083754;28;20062;-69
2022/12/26 15:27:48;;;;;;;13.35;3.03;;;6.00;1.00;;;;;;5081734;28;20482;-68
2022/12/26 15:30:39;;;;;;;14.00;2.83;;;5.30;1.00;;;;;;5035676;28;20048;-69
2022/12/26 15:33:15;;;;;;;17.23;3.35;;;5.40;1.00;;;;;;5082814;28;20032;-69
2022/12/26 15:35:51;;;;;;;10.32;3.38;;;5.60;1.00;;;;;;5081916;28;20081;-69
2022/12/26 15:38:45;;;;;;;7.63;2.47;;;5.90;1.00;;;;;;5073319;28;20097;-69